sensor_id;sensor_type;location;lat;lon;timestamp;P1;durP1;ratioP1;P2;durP2;ratioP2
817;SDS011;391;51.052;6.954;2022-11-20T00:01:27;15.65;;;10.65;;
817;SDS011;391;51.052;6.954;2022-11-20T00:03:31;11.65;;;8.63;;
817;SDS011;391;51.052;6.954;2022-11-20T00:05:34;13.55;;;10.20;;
817;SDS011;391;51.052;6.954;2022-11-20T00:07:38;14.13;;;9.18;;
817;SDS011;391;51.052;6.954;2022-11-20T00:09:41;13.25;;;9.90;;
817;SDS011;391;51.052;6.954;2022-11-20T00:11:44;13.70;;;9.32;;
817;SDS011;391;51.052;6.954;2022-11-20T00:13:49;14.15;;;10.70;;
817;SDS011;391;51.052;6.954;2022-11-20T00:15:56;15.80;;;10.63;;
817;SDS011;391;51.052;6.954;2022-11-20T00:18:00;19.50;;;14.23;;
817;SDS011;391;51.052;6.954;2022-11-20T00:20:04;16.65;;;11.10;;
817;SDS011;391;51.052;6.954;2022-11-20T00:22:08;17.80;;;11.38;;
817;SDS011;391;51.052;6.954;2022-11-20T00:24:11;17.23;;;11.60;;
817;SDS011;391;51.052;6.954;2022-11-20T00:26:15;13.43;;;8.40;;
817;SDS011;391;51.052;6.954;2022-11-20T00:28:21;12.77;;;10.07;;
817;SDS011;391;51.052;6.954;2022-11-20T00:30:26;13.68;;;10.43;;
817;SDS011;391;51.052;6.954;2022-11-20T00:32:30;10.55;;;8.95;;
817;SDS011;391;51.052;6.954;2022-11-20T00:34:33;13.43;;;9.38;;
817;SDS011;391;51.052;6.954;2022-11-20T00:36:36;12.55;;;9.30;;
817;SDS011;391;51.052;6.954;2022-11-20T00:38:40;12.68;;;9.77;;
817;SDS011;391;51.052;6.954;2022-11-20T00:40:43;12.20;;;10.30;;
817;SDS011;391;51.052;6.954;2022-11-20T00:42:53;13.75;;;9.30;;
817;SDS011;391;51.052;6.954;2022-11-20T00:44:56;13.73;;;9.68;;
817;SDS011;391;51.052;6.954;2022-11-20T00:47:00;14.63;;;9.18;;
817;SDS011;391;51.052;6.954;2022-11-20T00:49:04;13.55;;;10.32;;
817;SDS011;391;51.052;6.954;2022-11-20T00:51:07;12.85;;;8.90;;
817;SDS011;391;51.052;6.954;2022-11-20T00:53:15;13.60;;;9.68;;
817;SDS011;391;51.052;6.954;2022-11-20T00:55:18;17.80;;;10.15;;
817;SDS011;391;51.052;6.954;2022-11-20T00:57:22;10.65;;;8.52;;
817;SDS011;391;51.052;6.954;2022-11-20T00:59:25;11.35;;;7.93;;
817;SDS011;391;51.052;6.954;2022-11-20T01:01:29;10.13;;;8.25;;
817;SDS011;391;51.052;6.954;2022-11-20T01:03:35;14.93;;;9.55;;
817;SDS011;391;51.052;6.954;2022-11-20T01:05:39;14.18;;;9.18;;
817;SDS011;391;51.052;6.954;2022-11-20T01:07:42;14.35;;;9.70;;
817;SDS011;391;51.052;6.954;2022-11-20T01:09:46;13.48;;;9.43;;
817;SDS011;391;51.052;6.954;2022-11-20T01:11:49;10.20;;;8.25;;
817;SDS011;391;51.052;6.954;2022-11-20T01:13:53;12.93;;;9.60;;
817;SDS011;391;51.052;6.954;2022-11-20T01:16:01;10.55;;;7.93;;
817;SDS011;391;51.052;6.954;2022-11-20T01:18:05;13.73;;;9.32;;
817;SDS011;391;51.052;6.954;2022-11-20T01:20:11;10.40;;;8.25;;
817;SDS011;391;51.052;6.954;2022-11-20T01:22:14;11.70;;;9.07;;
817;SDS011;391;51.052;6.954;2022-11-20T01:24:18;11.55;;;7.85;;
817;SDS011;391;51.052;6.954;2022-11-20T01:26:23;9.88;;;7.85;;
817;SDS011;391;51.052;6.954;2022-11-20T01:28:27;15.85;;;10.20;;
817;SDS011;391;51.052;6.954;2022-11-20T01:30:31;12.05;;;9.05;;
817;SDS011;391;51.052;6.954;2022-11-20T01:32:35;12.35;;;9.18;;
817;SDS011;391;51.052;6.954;2022-11-20T01:34:38;14.77;;;9.02;;
817;SDS011;391;51.052;6.954;2022-11-20T01:36:43;11.80;;;8.63;;
817;SDS011;391;51.052;6.954;2022-11-20T01:38:47;11.13;;;7.95;;
817;SDS011;391;51.052;6.954;2022-11-20T01:40:53;15.68;;;10.73;;
817;SDS011;391;51.052;6.954;2022-11-20T01:43:04;11.50;;;9.52;;
817;SDS011;391;51.052;6.954;2022-11-20T01:48:01;10.88;;;8.88;;
817;SDS011;391;51.052;6.954;2022-11-20T01:50:06;11.15;;;7.60;;
817;SDS011;391;51.052;6.954;2022-11-20T01:52:17;9.68;;;7.80;;
817;SDS011;391;51.052;6.954;2022-11-20T01:54:23;9.82;;;8.52;;
817;SDS011;391;51.052;6.954;2022-11-20T01:56:31;13.95;;;8.93;;
817;SDS011;391;51.052;6.954;2022-11-20T01:58:40;13.18;;;9.77;;
817;SDS011;391;51.052;6.954;2022-11-20T02:00:46;10.95;;;8.40;;
817;SDS011;391;51.052;6.954;2022-11-20T02:02:51;12.18;;;9.05;;
817;SDS011;391;51.052;6.954;2022-11-20T02:05:00;13.32;;;8.75;;
817;SDS011;391;51.052;6.954;2022-11-20T02:07:12;10.95;;;8.75;;
817;SDS011;391;51.052;6.954;2022-11-20T02:09:18;11.20;;;8.15;;
817;SDS011;391;51.052;6.954;2022-11-20T02:11:21;12.13;;;8.85;;
817;SDS011;391;51.052;6.954;2022-11-20T02:13:25;10.65;;;7.60;;
817;SDS011;391;51.052;6.954;2022-11-20T02:15:46;12.20;;;8.07;;
817;SDS011;391;51.052;6.954;2022-11-20T02:17:50;10.32;;;7.97;;
817;SDS011;391;51.052;6.954;2022-11-20T02:19:54;12.88;;;9.60;;
817;SDS011;391;51.052;6.954;2022-11-20T02:21:59;12.07;;;10.27;;
817;SDS011;391;51.052;6.954;2022-11-20T02:24:10;12.80;;;8.95;;
817;SDS011;391;51.052;6.954;2022-11-20T02:26:15;12.20;;;8.00;;
817;SDS011;391;51.052;6.954;2022-11-20T02:28:20;11.65;;;8.88;;
817;SDS011;391;51.052;6.954;2022-11-20T02:30:23;10.95;;;8.98;;
817;SDS011;391;51.052;6.954;2022-11-20T02:32:27;13.60;;;8.68;;
817;SDS011;391;51.052;6.954;2022-11-20T02:34:32;14.50;;;10.13;;
817;SDS011;391;51.052;6.954;2022-11-20T02:36:35;13.10;;;9.32;;
817;SDS011;391;51.052;6.954;2022-11-20T02:38:41;11.15;;;7.80;;
817;SDS011;391;51.052;6.954;2022-11-20T02:40:47;11.65;;;8.02;;
817;SDS011;391;51.052;6.954;2022-11-20T02:42:56;13.10;;;8.82;;
817;SDS011;391;51.052;6.954;2022-11-20T02:45:00;11.85;;;9.80;;
817;SDS011;391;51.052;6.954;2022-11-20T02:47:03;12.95;;;9.40;;
817;SDS011;391;51.052;6.954;2022-11-20T02:49:07;13.60;;;9.75;;
817;SDS011;391;51.052;6.954;2022-11-20T02:51:10;12.65;;;9.57;;
817;SDS011;391;51.052;6.954;2022-11-20T02:53:13;13.85;;;9.75;;
817;SDS011;391;51.052;6.954;2022-11-20T02:55:16;12.25;;;9.25;;
817;SDS011;391;51.052;6.954;2022-11-20T02:57:21;14.60;;;9.50;;
817;SDS011;391;51.052;6.954;2022-11-20T02:59:24;12.35;;;8.68;;
817;SDS011;391;51.052;6.954;2022-11-20T03:01:28;10.63;;;8.32;;
817;SDS011;391;51.052;6.954;2022-11-20T03:03:31;12.65;;;8.75;;
817;SDS011;391;51.052;6.954;2022-11-20T03:05:35;10.52;;;8.05;;
817;SDS011;391;51.052;6.954;2022-11-20T03:07:38;12.55;;;8.25;;
817;SDS011;391;51.052;6.954;2022-11-20T03:09:41;14.23;;;9.70;;
817;SDS011;391;51.052;6.954;2022-11-20T03:11:45;10.50;;;8.95;;
817;SDS011;391;51.052;6.954;2022-11-20T03:13:49;10.43;;;8.03;;
817;SDS011;391;51.052;6.954;2022-11-20T03:15:53;10.68;;;8.30;;
817;SDS011;391;51.052;6.954;2022-11-20T03:17:56;12.82;;;8.80;;
817;SDS011;391;51.052;6.954;2022-11-20T03:19:59;11.50;;;8.88;;
817;SDS011;391;51.052;6.954;2022-11-20T03:22:03;12.82;;;9.15;;
817;SDS011;391;51.052;6.954;2022-11-20T03:24:06;11.98;;;8.25;;
817;SDS011;391;51.052;6.954;2022-11-20T03:26:11;11.02;;;8.18;;
817;SDS011;391;51.052;6.954;2022-11-20T03:28:17;13.05;;;10.13;;
817;SDS011;391;51.052;6.954;2022-11-20T03:30:21;13.80;;;9.38;;
817;SDS011;391;51.052;6.954;2022-11-20T03:32:31;12.45;;;9.27;;
817;SDS011;391;51.052;6.954;2022-11-20T03:34:34;12.50;;;8.63;;
817;SDS011;391;51.052;6.954;2022-11-20T03:36:38;11.40;;;8.10;;
817;SDS011;391;51.052;6.954;2022-11-20T03:38:42;10.07;;;7.97;;
817;SDS011;391;51.052;6.954;2022-11-20T03:40:45;10.48;;;7.63;;
817;SDS011;391;51.052;6.954;2022-11-20T03:42:50;9.27;;;6.45;;
817;SDS011;391;51.052;6.954;2022-11-20T03:44:53;10.77;;;7.43;;
817;SDS011;391;51.052;6.954;2022-11-20T03:46:58;10.57;;;6.78;;
817;SDS011;391;51.052;6.954;2022-11-20T03:49:02;12.95;;;9.13;;
817;SDS011;391;51.052;6.954;2022-11-20T03:51:06;15.35;;;9.75;;
817;SDS011;391;51.052;6.954;2022-11-20T03:53:11;10.07;;;8.25;;
817;SDS011;391;51.052;6.954;2022-11-20T03:55:14;12.33;;;8.73;;
817;SDS011;391;51.052;6.954;2022-11-20T03:57:18;10.63;;;7.70;;
817;SDS011;391;51.052;6.954;2022-11-20T03:59:20;18.40;;;14.00;;
817;SDS011;391;51.052;6.954;2022-11-20T04:01:25;15.70;;;12.27;;
817;SDS011;391;51.052;6.954;2022-11-20T04:03:31;15.30;;;10.82;;
817;SDS011;391;51.052;6.954;2022-11-20T04:05:34;14.85;;;10.60;;
817;SDS011;391;51.052;6.954;2022-11-20T04:07:38;10.43;;;8.35;;
817;SDS011;391;51.052;6.954;2022-11-20T04:09:41;11.82;;;8.80;;
817;SDS011;391;51.052;6.954;2022-11-20T04:11:44;11.63;;;8.95;;
817;SDS011;391;51.052;6.954;2022-11-20T04:13:48;13.40;;;8.35;;
817;SDS011;391;51.052;6.954;2022-11-20T04:15:58;13.55;;;10.13;;
817;SDS011;391;51.052;6.954;2022-11-20T04:18:01;10.65;;;8.05;;
817;SDS011;391;51.052;6.954;2022-11-20T04:20:07;11.75;;;8.90;;
817;SDS011;391;51.052;6.954;2022-11-20T04:22:11;12.38;;;9.88;;
817;SDS011;391;51.052;6.954;2022-11-20T04:24:14;10.00;;;7.80;;
817;SDS011;391;51.052;6.954;2022-11-20T04:26:17;12.10;;;8.40;;
817;SDS011;391;51.052;6.954;2022-11-20T04:28:21;9.05;;;7.80;;
817;SDS011;391;51.052;6.954;2022-11-20T04:30:25;11.80;;;8.35;;
817;SDS011;391;51.052;6.954;2022-11-20T04:32:28;9.82;;;7.72;;
817;SDS011;391;51.052;6.954;2022-11-20T04:34:31;9.52;;;7.93;;
817;SDS011;391;51.052;6.954;2022-11-20T04:36:36;8.90;;;7.30;;
817;SDS011;391;51.052;6.954;2022-11-20T04:38:39;9.70;;;7.00;;
817;SDS011;391;51.052;6.954;2022-11-20T04:40:43;11.82;;;8.25;;
817;SDS011;391;51.052;6.954;2022-11-20T04:42:46;12.77;;;6.93;;
817;SDS011;391;51.052;6.954;2022-11-20T04:44:50;11.18;;;8.48;;
817;SDS011;391;51.052;6.954;2022-11-20T04:46:53;8.75;;;6.95;;
817;SDS011;391;51.052;6.954;2022-11-20T04:48:57;8.95;;;7.15;;
817;SDS011;391;51.052;6.954;2022-11-20T04:51:02;11.93;;;8.73;;
817;SDS011;391;51.052;6.954;2022-11-20T04:53:08;12.88;;;8.52;;
817;SDS011;391;51.052;6.954;2022-11-20T04:55:11;10.23;;;8.10;;
817;SDS011;391;51.052;6.954;2022-11-20T04:57:15;14.05;;;8.60;;
817;SDS011;391;51.052;6.954;2022-11-20T04:59:18;13.65;;;10.05;;
817;SDS011;391;51.052;6.954;2022-11-20T05:01:23;12.80;;;8.80;;
817;SDS011;391;51.052;6.954;2022-11-20T05:03:27;10.27;;;8.02;;
817;SDS011;391;51.052;6.954;2022-11-20T05:05:30;11.90;;;8.68;;
817;SDS011;391;51.052;6.954;2022-11-20T05:07:34;9.57;;;7.53;;
817;SDS011;391;51.052;6.954;2022-11-20T05:09:39;10.85;;;7.90;;
817;SDS011;391;51.052;6.954;2022-11-20T05:11:42;13.18;;;9.10;;
817;SDS011;391;51.052;6.954;2022-11-20T05:13:52;10.23;;;8.18;;
817;SDS011;391;51.052;6.954;2022-11-20T05:16:00;12.48;;;8.95;;
817;SDS011;391;51.052;6.954;2022-11-20T05:18:04;11.68;;;8.60;;
817;SDS011;391;51.052;6.954;2022-11-20T05:20:08;12.02;;;8.57;;
817;SDS011;391;51.052;6.954;2022-11-20T05:22:12;9.40;;;6.90;;
817;SDS011;391;51.052;6.954;2022-11-20T05:24:15;16.98;;;7.90;;
817;SDS011;391;51.052;6.954;2022-11-20T05:26:21;9.10;;;7.93;;
817;SDS011;391;51.052;6.954;2022-11-20T05:28:25;14.00;;;9.27;;
817;SDS011;391;51.052;6.954;2022-11-20T05:30:29;12.27;;;8.50;;
817;SDS011;391;51.052;6.954;2022-11-20T05:32:32;11.30;;;8.90;;
817;SDS011;391;51.052;6.954;2022-11-20T05:34:36;10.05;;;8.02;;
817;SDS011;391;51.052;6.954;2022-11-20T05:36:39;12.55;;;8.80;;
817;SDS011;391;51.052;6.954;2022-11-20T05:38:42;10.15;;;7.88;;
817;SDS011;391;51.052;6.954;2022-11-20T05:40:51;10.63;;;7.32;;
817;SDS011;391;51.052;6.954;2022-11-20T05:42:56;13.00;;;9.43;;
817;SDS011;391;51.052;6.954;2022-11-20T05:45:00;12.60;;;8.93;;
817;SDS011;391;51.052;6.954;2022-11-20T05:47:04;10.50;;;8.75;;
817;SDS011;391;51.052;6.954;2022-11-20T05:49:08;12.20;;;8.43;;
817;SDS011;391;51.052;6.954;2022-11-20T05:51:13;12.07;;;8.35;;
817;SDS011;391;51.052;6.954;2022-11-20T05:53:17;11.27;;;7.45;;
817;SDS011;391;51.052;6.954;2022-11-20T05:55:20;14.27;;;9.02;;
817;SDS011;391;51.052;6.954;2022-11-20T05:57:24;10.82;;;8.00;;
817;SDS011;391;51.052;6.954;2022-11-20T05:59:29;12.07;;;8.68;;
817;SDS011;391;51.052;6.954;2022-11-20T06:01:32;11.15;;;8.95;;
817;SDS011;391;51.052;6.954;2022-11-20T06:03:38;12.25;;;9.02;;
817;SDS011;391;51.052;6.954;2022-11-20T06:05:44;15.35;;;11.05;;
817;SDS011;391;51.052;6.954;2022-11-20T06:07:47;11.57;;;8.57;;
817;SDS011;391;51.052;6.954;2022-11-20T06:09:50;10.95;;;8.30;;
817;SDS011;391;51.052;6.954;2022-11-20T06:11:54;10.98;;;7.85;;
817;SDS011;391;51.052;6.954;2022-11-20T06:13:57;13.13;;;9.52;;
817;SDS011;391;51.052;6.954;2022-11-20T06:16:02;12.10;;;7.82;;
817;SDS011;391;51.052;6.954;2022-11-20T06:18:06;13.45;;;9.00;;
817;SDS011;391;51.052;6.954;2022-11-20T06:20:09;11.48;;;8.35;;
817;SDS011;391;51.052;6.954;2022-11-20T06:22:13;11.13;;;8.55;;
817;SDS011;391;51.052;6.954;2022-11-20T06:24:16;11.93;;;8.10;;
817;SDS011;391;51.052;6.954;2022-11-20T06:26:21;13.00;;;7.65;;
817;SDS011;391;51.052;6.954;2022-11-20T06:28:26;12.63;;;9.43;;
817;SDS011;391;51.052;6.954;2022-11-20T06:30:29;10.60;;;8.20;;
817;SDS011;391;51.052;6.954;2022-11-20T06:32:34;14.25;;;8.82;;
817;SDS011;391;51.052;6.954;2022-11-20T06:34:38;15.57;;;8.15;;
817;SDS011;391;51.052;6.954;2022-11-20T06:36:41;11.77;;;8.13;;
817;SDS011;391;51.052;6.954;2022-11-20T06:38:44;11.43;;;7.75;;
817;SDS011;391;51.052;6.954;2022-11-20T06:40:48;11.52;;;8.70;;
817;SDS011;391;51.052;6.954;2022-11-20T06:42:53;11.40;;;7.60;;
817;SDS011;391;51.052;6.954;2022-11-20T06:44:56;10.43;;;8.38;;
817;SDS011;391;51.052;6.954;2022-11-20T06:47:00;14.32;;;8.80;;
817;SDS011;391;51.052;6.954;2022-11-20T06:49:05;13.50;;;9.23;;
817;SDS011;391;51.052;6.954;2022-11-20T06:51:09;13.68;;;9.50;;
817;SDS011;391;51.052;6.954;2022-11-20T06:53:12;13.07;;;8.75;;
817;SDS011;391;51.052;6.954;2022-11-20T06:55:16;11.48;;;7.53;;
817;SDS011;391;51.052;6.954;2022-11-20T06:57:19;10.68;;;8.55;;
817;SDS011;391;51.052;6.954;2022-11-20T06:59:22;11.35;;;8.65;;
817;SDS011;391;51.052;6.954;2022-11-20T07:01:26;12.90;;;8.77;;
817;SDS011;391;51.052;6.954;2022-11-20T07:03:29;16.17;;;10.23;;
817;SDS011;391;51.052;6.954;2022-11-20T07:05:34;12.25;;;8.95;;
817;SDS011;391;51.052;6.954;2022-11-20T07:07:38;11.48;;;8.70;;
817;SDS011;391;51.052;6.954;2022-11-20T07:09:41;13.30;;;7.75;;
817;SDS011;391;51.052;6.954;2022-11-20T07:11:45;10.90;;;7.88;;
817;SDS011;391;51.052;6.954;2022-11-20T07:13:48;10.45;;;8.27;;
817;SDS011;391;51.052;6.954;2022-11-20T07:15:52;9.82;;;8.18;;
817;SDS011;391;51.052;6.954;2022-11-20T07:17:58;16.70;;;9.02;;
817;SDS011;391;51.052;6.954;2022-11-20T07:20:01;12.88;;;9.30;;
817;SDS011;391;51.052;6.954;2022-11-20T07:22:06;13.25;;;9.02;;
817;SDS011;391;51.052;6.954;2022-11-20T07:24:09;12.90;;;9.45;;
817;SDS011;391;51.052;6.954;2022-11-20T07:26:13;13.18;;;9.65;;
817;SDS011;391;51.052;6.954;2022-11-20T07:28:17;13.77;;;9.85;;
817;SDS011;391;51.052;6.954;2022-11-20T07:30:20;12.18;;;9.95;;
817;SDS011;391;51.052;6.954;2022-11-20T07:32:23;14.70;;;10.32;;
817;SDS011;391;51.052;6.954;2022-11-20T07:34:27;11.45;;;8.07;;
817;SDS011;391;51.052;6.954;2022-11-20T07:36:30;10.77;;;7.70;;
817;SDS011;391;51.052;6.954;2022-11-20T07:38:35;12.52;;;9.90;;
817;SDS011;391;51.052;6.954;2022-11-20T07:40:40;13.85;;;9.50;;
817;SDS011;391;51.052;6.954;2022-11-20T07:42:46;13.38;;;11.40;;
817;SDS011;391;51.052;6.954;2022-11-20T07:44:51;15.52;;;10.65;;
817;SDS011;391;51.052;6.954;2022-11-20T07:46:55;22.42;;;13.60;;
817;SDS011;391;51.052;6.954;2022-11-20T07:48:58;15.13;;;9.95;;
817;SDS011;391;51.052;6.954;2022-11-20T07:51:01;17.83;;;11.00;;
817;SDS011;391;51.052;6.954;2022-11-20T07:53:05;13.32;;;10.00;;
817;SDS011;391;51.052;6.954;2022-11-20T07:55:11;13.23;;;9.98;;
817;SDS011;391;51.052;6.954;2022-11-20T07:57:14;13.10;;;9.13;;
817;SDS011;391;51.052;6.954;2022-11-20T07:59:18;13.48;;;8.15;;
817;SDS011;391;51.052;6.954;2022-11-20T08:01:21;19.63;;;12.93;;
817;SDS011;391;51.052;6.954;2022-11-20T08:03:25;15.43;;;12.60;;
817;SDS011;391;51.052;6.954;2022-11-20T08:05:28;12.20;;;9.43;;
817;SDS011;391;51.052;6.954;2022-11-20T08:07:34;17.10;;;10.75;;
817;SDS011;391;51.052;6.954;2022-11-20T08:09:38;16.55;;;11.10;;
817;SDS011;391;51.052;6.954;2022-11-20T08:11:43;13.60;;;10.88;;
817;SDS011;391;51.052;6.954;2022-11-20T08:14:04;14.77;;;11.55;;
817;SDS011;391;51.052;6.954;2022-11-20T08:16:17;16.05;;;9.75;;
817;SDS011;391;51.052;6.954;2022-11-20T08:18:20;15.00;;;9.52;;
817;SDS011;391;51.052;6.954;2022-11-20T08:20:32;13.60;;;9.70;;
817;SDS011;391;51.052;6.954;2022-11-20T08:22:36;13.70;;;10.20;;
817;SDS011;391;51.052;6.954;2022-11-20T08:24:40;14.50;;;9.82;;
817;SDS011;391;51.052;6.954;2022-11-20T08:26:45;9.98;;;8.60;;
817;SDS011;391;51.052;6.954;2022-11-20T08:28:48;12.73;;;9.18;;
817;SDS011;391;51.052;6.954;2022-11-20T08:30:51;13.70;;;9.45;;
817;SDS011;391;51.052;6.954;2022-11-20T08:33:01;13.20;;;9.45;;
817;SDS011;391;51.052;6.954;2022-11-20T08:35:06;12.90;;;9.02;;
817;SDS011;391;51.052;6.954;2022-11-20T08:37:10;12.57;;;10.37;;
817;SDS011;391;51.052;6.954;2022-11-20T08:39:14;12.65;;;10.20;;
817;SDS011;391;51.052;6.954;2022-11-20T08:41:18;14.25;;;10.25;;
817;SDS011;391;51.052;6.954;2022-11-20T08:43:29;14.38;;;10.80;;
817;SDS011;391;51.052;6.954;2022-11-20T08:45:33;16.92;;;12.02;;
817;SDS011;391;51.052;6.954;2022-11-20T08:47:36;19.00;;;12.68;;
817;SDS011;391;51.052;6.954;2022-11-20T08:49:40;16.20;;;11.73;;
817;SDS011;391;51.052;6.954;2022-11-20T08:51:43;15.10;;;11.32;;
817;SDS011;391;51.052;6.954;2022-11-20T08:53:47;17.55;;;11.10;;
817;SDS011;391;51.052;6.954;2022-11-20T08:55:51;14.35;;;10.02;;
817;SDS011;391;51.052;6.954;2022-11-20T08:57:54;13.60;;;10.27;;
817;SDS011;391;51.052;6.954;2022-11-20T08:59:59;13.13;;;9.55;;
817;SDS011;391;51.052;6.954;2022-11-20T09:02:08;20.13;;;14.70;;
817;SDS011;391;51.052;6.954;2022-11-20T09:04:11;26.17;;;17.00;;
817;SDS011;391;51.052;6.954;2022-11-20T09:06:16;18.93;;;13.80;;
817;SDS011;391;51.052;6.954;2022-11-20T09:08:20;21.92;;;16.88;;
817;SDS011;391;51.052;6.954;2022-11-20T09:10:23;27.85;;;18.40;;
817;SDS011;391;51.052;6.954;2022-11-20T09:12:27;17.15;;;12.90;;
817;SDS011;391;51.052;6.954;2022-11-20T09:14:30;15.63;;;10.70;;
817;SDS011;391;51.052;6.954;2022-11-20T09:16:35;16.73;;;11.43;;
817;SDS011;391;51.052;6.954;2022-11-20T09:18:38;18.88;;;11.88;;
817;SDS011;391;51.052;6.954;2022-11-20T09:20:42;14.88;;;10.93;;
817;SDS011;391;51.052;6.954;2022-11-20T09:22:45;14.95;;;12.10;;
817;SDS011;391;51.052;6.954;2022-11-20T09:24:48;17.55;;;11.93;;
817;SDS011;391;51.052;6.954;2022-11-20T09:26:52;14.80;;;10.65;;
817;SDS011;391;51.052;6.954;2022-11-20T09:28:55;13.55;;;10.45;;
817;SDS011;391;51.052;6.954;2022-11-20T09:30:59;15.57;;;10.40;;
817;SDS011;391;51.052;6.954;2022-11-20T09:33:05;16.45;;;11.50;;
817;SDS011;391;51.052;6.954;2022-11-20T09:35:09;13.63;;;10.00;;
817;SDS011;391;51.052;6.954;2022-11-20T09:37:13;15.30;;;11.40;;
817;SDS011;391;51.052;6.954;2022-11-20T09:39:16;13.90;;;11.67;;
817;SDS011;391;51.052;6.954;2022-11-20T09:41:30;17.35;;;12.27;;
817;SDS011;391;51.052;6.954;2022-11-20T09:43:46;16.85;;;11.95;;
817;SDS011;391;51.052;6.954;2022-11-20T09:46:03;16.25;;;11.80;;
817;SDS011;391;51.052;6.954;2022-11-20T09:48:17;16.10;;;11.40;;
817;SDS011;391;51.052;6.954;2022-11-20T09:50:30;17.10;;;10.55;;
817;SDS011;391;51.052;6.954;2022-11-20T09:52:37;19.10;;;12.23;;
817;SDS011;391;51.052;6.954;2022-11-20T09:54:50;15.77;;;11.40;;
817;SDS011;391;51.052;6.954;2022-11-20T09:56:58;19.20;;;12.97;;
817;SDS011;391;51.052;6.954;2022-11-20T09:59:04;16.27;;;12.00;;
817;SDS011;391;51.052;6.954;2022-11-20T10:01:10;14.63;;;10.50;;
817;SDS011;391;51.052;6.954;2022-11-20T10:03:18;13.95;;;10.30;;
817;SDS011;391;51.052;6.954;2022-11-20T10:05:39;17.10;;;10.82;;
817;SDS011;391;51.052;6.954;2022-11-20T10:07:47;14.75;;;10.57;;
817;SDS011;391;51.052;6.954;2022-11-20T10:09:57;12.20;;;9.07;;
817;SDS011;391;51.052;6.954;2022-11-20T10:12:10;11.20;;;9.00;;
817;SDS011;391;51.052;6.954;2022-11-20T10:14:23;18.52;;;13.15;;
817;SDS011;391;51.052;6.954;2022-11-20T10:16:36;15.00;;;10.80;;
817;SDS011;391;51.052;6.954;2022-11-20T10:18:54;15.80;;;11.77;;
817;SDS011;391;51.052;6.954;2022-11-20T10:21:09;15.17;;;11.07;;
817;SDS011;391;51.052;6.954;2022-11-20T10:23:35;17.60;;;11.00;;
817;SDS011;391;51.052;6.954;2022-11-20T10:25:51;17.70;;;12.38;;
817;SDS011;391;51.052;6.954;2022-11-20T10:28:16;14.77;;;11.07;;
817;SDS011;391;51.052;6.954;2022-11-20T10:30:31;17.38;;;10.88;;
817;SDS011;391;51.052;6.954;2022-11-20T10:32:42;16.53;;;10.90;;
817;SDS011;391;51.052;6.954;2022-11-20T10:34:50;21.07;;;13.97;;
817;SDS011;391;51.052;6.954;2022-11-20T10:37:01;14.43;;;10.83;;
817;SDS011;391;51.052;6.954;2022-11-20T10:39:19;23.47;;;16.20;;
817;SDS011;391;51.052;6.954;2022-11-20T10:41:32;22.07;;;14.90;;
817;SDS011;391;51.052;6.954;2022-11-20T10:43:43;18.70;;;12.70;;
817;SDS011;391;51.052;6.954;2022-11-20T10:45:52;20.25;;;12.63;;
817;SDS011;391;51.052;6.954;2022-11-20T10:48:04;16.80;;;12.63;;
817;SDS011;391;51.052;6.954;2022-11-20T10:50:16;16.15;;;11.25;;
817;SDS011;391;51.052;6.954;2022-11-20T10:52:25;14.82;;;12.00;;
817;SDS011;391;51.052;6.954;2022-11-20T10:54:36;17.77;;;10.93;;
817;SDS011;391;51.052;6.954;2022-11-20T10:56:46;15.57;;;11.37;;
817;SDS011;391;51.052;6.954;2022-11-20T10:59:04;19.63;;;13.63;;
817;SDS011;391;51.052;6.954;2022-11-20T11:01:24;15.67;;;12.70;;
817;SDS011;391;51.052;6.954;2022-11-20T11:03:29;17.40;;;13.90;;
817;SDS011;391;51.052;6.954;2022-11-20T11:05:37;17.47;;;12.07;;
817;SDS011;391;51.052;6.954;2022-11-20T11:07:44;25.17;;;15.53;;
817;SDS011;391;51.052;6.954;2022-11-20T11:09:50;19.60;;;14.47;;
817;SDS011;391;51.052;6.954;2022-11-20T11:11:55;15.03;;;11.23;;
817;SDS011;391;51.052;6.954;2022-11-20T11:14:07;25.27;;;17.50;;
817;SDS011;391;51.052;6.954;2022-11-20T11:16:16;20.70;;;14.37;;
817;SDS011;391;51.052;6.954;2022-11-20T11:18:24;18.50;;;12.87;;
817;SDS011;391;51.052;6.954;2022-11-20T11:20:29;17.77;;;13.47;;
817;SDS011;391;51.052;6.954;2022-11-20T11:22:39;18.50;;;12.27;;
817;SDS011;391;51.052;6.954;2022-11-20T11:24:51;17.73;;;11.63;;
817;SDS011;391;51.052;6.954;2022-11-20T11:26:56;18.83;;;12.73;;
817;SDS011;391;51.052;6.954;2022-11-20T11:29:02;18.40;;;12.20;;
817;SDS011;391;51.052;6.954;2022-11-20T11:31:06;14.20;;;11.50;;
817;SDS011;391;51.052;6.954;2022-11-20T11:33:11;16.30;;;12.80;;
817;SDS011;391;51.052;6.954;2022-11-20T11:35:22;21.10;;;12.73;;
817;SDS011;391;51.052;6.954;2022-11-20T11:37:29;17.93;;;12.43;;
817;SDS011;391;51.052;6.954;2022-11-20T11:39:38;16.00;;;12.60;;
817;SDS011;391;51.052;6.954;2022-11-20T11:41:45;19.37;;;14.73;;
817;SDS011;391;51.052;6.954;2022-11-20T11:43:52;20.33;;;12.53;;
817;SDS011;391;51.052;6.954;2022-11-20T11:46:23;15.13;;;11.20;;
817;SDS011;391;51.052;6.954;2022-11-20T11:48:30;16.83;;;11.90;;
817;SDS011;391;51.052;6.954;2022-11-20T11:50:34;15.97;;;11.70;;
817;SDS011;391;51.052;6.954;2022-11-20T11:52:38;19.73;;;13.20;;
817;SDS011;391;51.052;6.954;2022-11-20T11:54:49;19.23;;;15.10;;
817;SDS011;391;51.052;6.954;2022-11-20T11:56:57;19.42;;;12.65;;
817;SDS011;391;51.052;6.954;2022-11-20T11:59:04;23.00;;;14.90;;
817;SDS011;391;51.052;6.954;2022-11-20T12:01:20;28.33;;;20.43;;
817;SDS011;391;51.052;6.954;2022-11-20T12:03:33;25.73;;;14.20;;
817;SDS011;391;51.052;6.954;2022-11-20T12:05:40;16.53;;;11.13;;
817;SDS011;391;51.052;6.954;2022-11-20T12:07:46;21.63;;;12.93;;
817;SDS011;391;51.052;6.954;2022-11-20T12:09:53;20.53;;;14.10;;
817;SDS011;391;51.052;6.954;2022-11-20T12:12:02;19.47;;;12.60;;
817;SDS011;391;51.052;6.954;2022-11-20T12:14:13;16.15;;;11.88;;
817;SDS011;391;51.052;6.954;2022-11-20T12:16:21;16.80;;;12.20;;
817;SDS011;391;51.052;6.954;2022-11-20T12:18:25;17.50;;;11.33;;
817;SDS011;391;51.052;6.954;2022-11-20T12:20:32;21.53;;;14.40;;
817;SDS011;391;51.052;6.954;2022-11-20T12:22:44;18.63;;;13.83;;
817;SDS011;391;51.052;6.954;2022-11-20T12:24:57;21.30;;;14.27;;
817;SDS011;391;51.052;6.954;2022-11-20T12:27:09;17.50;;;13.33;;
817;SDS011;391;51.052;6.954;2022-11-20T12:29:33;18.90;;;13.17;;
817;SDS011;391;51.052;6.954;2022-11-20T12:31:52;17.33;;;13.20;;
817;SDS011;391;51.052;6.954;2022-11-20T12:36:54;16.30;;;11.63;;
817;SDS011;391;51.052;6.954;2022-11-20T12:41:41;16.00;;;10.90;;
817;SDS011;391;51.052;6.954;2022-11-20T12:44:10;22.95;;;12.93;;
817;SDS011;391;51.052;6.954;2022-11-20T12:46:44;16.33;;;12.15;;
817;SDS011;391;51.052;6.954;2022-11-20T12:48:57;19.90;;;12.83;;
817;SDS011;391;51.052;6.954;2022-11-20T12:51:27;20.57;;;12.80;;
817;SDS011;391;51.052;6.954;2022-11-20T12:54:00;16.87;;;11.77;;
817;SDS011;391;51.052;6.954;2022-11-20T12:56:20;17.63;;;12.30;;
817;SDS011;391;51.052;6.954;2022-11-20T12:58:36;18.97;;;13.17;;
817;SDS011;391;51.052;6.954;2022-11-20T13:00:50;20.83;;;14.57;;
817;SDS011;391;51.052;6.954;2022-11-20T13:03:06;19.13;;;12.57;;
817;SDS011;391;51.052;6.954;2022-11-20T13:05:21;23.40;;;13.02;;
817;SDS011;391;51.052;6.954;2022-11-20T13:07:30;21.53;;;13.90;;
817;SDS011;391;51.052;6.954;2022-11-20T13:09:42;18.17;;;13.20;;
817;SDS011;391;51.052;6.954;2022-11-20T13:11:49;19.30;;;12.80;;
817;SDS011;391;51.052;6.954;2022-11-20T13:14:14;15.53;;;11.20;;
817;SDS011;391;51.052;6.954;2022-11-20T13:16:29;17.20;;;11.60;;
817;SDS011;391;51.052;6.954;2022-11-20T13:18:39;16.73;;;12.33;;
817;SDS011;391;51.052;6.954;2022-11-20T13:20:46;16.27;;;11.83;;
817;SDS011;391;51.052;6.954;2022-11-20T13:22:51;17.73;;;13.40;;